sensor_id;sensor_type;location;lat;lon;timestamp;temperature;humidity
37702;DHT22;23548;51.196;6.838;2023-04-29T00:02:01;13.20;99.90
37702;DHT22;23548;51.196;6.838;2023-04-29T00:04:27;13.20;99.90
37702;DHT22;23548;51.196;6.838;2023-04-29T00:06:53;13.20;99.90
37702;DHT22;23548;51.196;6.838;2023-04-29T00:09:20;13.20;99.90
37702;DHT22;23548;51.196;6.838;2023-04-29T00:11:46;13.10;99.90
37702;DHT22;23548;51.196;6.838;2023-04-29T00:14:12;13.10;99.90
37702;DHT22;23548;51.196;6.838;2023-04-29T00:16:38;13.10;99.90
37702;DHT22;23548;51.196;6.838;2023-04-29T00:19:04;13.10;99.90
37702;DHT22;23548;51.196;6.838;2023-04-29T00:21:29;13.10;99.90
37702;DHT22;23548;51.196;6.838;2023-04-29T00:23:56;13.00;99.90
37702;DHT22;23548;51.196;6.838;2023-04-29T00:26:22;12.80;99.90
37702;DHT22;23548;51.196;6.838;2023-04-29T00:28:48;12.60;99.90
37702;DHT22;23548;51.196;6.838;2023-04-29T00:31:13;12.40;99.90
37702;DHT22;23548;51.196;6.838;2023-04-29T00:33:40;12.30;99.90
37702;DHT22;23548;51.196;6.838;2023-04-29T00:36:06;12.20;99.90
37702;DHT22;23548;51.196;6.838;2023-04-29T00:38:33;12.10;99.90
37702;DHT22;23548;51.196;6.838;2023-04-29T00:40:59;12.10;99.90
37702;DHT22;23548;51.196;6.838;2023-04-29T00:43:25;12.10;99.90
37702;DHT22;23548;51.196;6.838;2023-04-29T00:45:51;12.10;99.90
37702;DHT22;23548;51.196;6.838;2023-04-29T00:48:17;12.00;99.90
37702;DHT22;23548;51.196;6.838;2023-04-29T00:50:42;12.00;99.90
37702;DHT22;23548;51.196;6.838;2023-04-29T00:53:10;11.90;99.90
37702;DHT22;23548;51.196;6.838;2023-04-29T00:55:37;11.90;99.90
37702;DHT22;23548;51.196;6.838;2023-04-29T00:58:03;12.00;99.90
37702;DHT22;23548;51.196;6.838;2023-04-29T01:00:29;12.00;99.90
37702;DHT22;23548;51.196;6.838;2023-04-29T01:02:56;12.10;99.90
37702;DHT22;23548;51.196;6.838;2023-04-29T01:05:25;12.10;99.90
37702;DHT22;23548;51.196;6.838;2023-04-29T01:10:43;12.10;99.90
37702;DHT22;23548;51.196;6.838;2023-04-29T01:13:45;12.10;99.90
37702;DHT22;23548;51.196;6.838;2023-04-29T01:16:20;12.00;99.90
37702;DHT22;23548;51.196;6.838;2023-04-29T01:19:03;12.00;99.90
37702;DHT22;23548;51.196;6.838;2023-04-29T01:21:31;12.00;99.90
37702;DHT22;23548;51.196;6.838;2023-04-29T01:23:57;12.10;99.90
37702;DHT22;23548;51.196;6.838;2023-04-29T01:26:23;12.00;99.90
37702;DHT22;23548;51.196;6.838;2023-04-29T01:29:16;11.90;99.90
37702;DHT22;23548;51.196;6.838;2023-04-29T01:31:54;11.80;99.90
37702;DHT22;23548;51.196;6.838;2023-04-29T01:34:30;11.80;99.90
37702;DHT22;23548;51.196;6.838;2023-04-29T01:37:16;11.80;99.90
37702;DHT22;23548;51.196;6.838;2023-04-29T01:42:32;11.80;99.90
37702;DHT22;23548;51.196;6.838;2023-04-29T01:45:00;11.80;99.90
37702;DHT22;23548;51.196;6.838;2023-04-29T01:50:51;11.70;99.90
37702;DHT22;23548;51.196;6.838;2023-04-29T01:53:17;11.70;99.90
37702;DHT22;23548;51.196;6.838;2023-04-29T01:55:43;11.60;99.90
37702;DHT22;23548;51.196;6.838;2023-04-29T01:58:10;11.60;99.90
37702;DHT22;23548;51.196;6.838;2023-04-29T02:00:35;11.60;99.90
37702;DHT22;23548;51.196;6.838;2023-04-29T02:03:03;11.60;99.90
37702;DHT22;23548;51.196;6.838;2023-04-29T02:05:28;11.60;99.90
37702;DHT22;23548;51.196;6.838;2023-04-29T02:07:58;11.60;99.90
37702;DHT22;23548;51.196;6.838;2023-04-29T02:10:25;11.60;99.90
37702;DHT22;23548;51.196;6.838;2023-04-29T02:12:51;11.60;99.90
37702;DHT22;23548;51.196;6.838;2023-04-29T02:15:17;11.50;99.90
37702;DHT22;23548;51.196;6.838;2023-04-29T02:17:43;11.40;99.90
37702;DHT22;23548;51.196;6.838;2023-04-29T02:20:08;11.30;99.90
37702;DHT22;23548;51.196;6.838;2023-04-29T02:22:35;11.30;99.90
37702;DHT22;23548;51.196;6.838;2023-04-29T02:25:01;11.30;99.90
37702;DHT22;23548;51.196;6.838;2023-04-29T02:27:27;11.30;99.90
37702;DHT22;23548;51.196;6.838;2023-04-29T02:29:52;11.20;99.90
37702;DHT22;23548;51.196;6.838;2023-04-29T02:32:18;11.30;99.90
37702;DHT22;23548;51.196;6.838;2023-04-29T02:34:47;11.30;99.90
37702;DHT22;23548;51.196;6.838;2023-04-29T02:37:13;11.20;99.90
37702;DHT22;23548;51.196;6.838;2023-04-29T02:39:41;11.00;99.90
37702;DHT22;23548;51.196;6.838;2023-04-29T02:42:07;11.10;99.90
37702;DHT22;23548;51.196;6.838;2023-04-29T02:44:32;11.10;99.90
37702;DHT22;23548;51.196;6.838;2023-04-29T02:46:58;11.10;99.90
37702;DHT22;23548;51.196;6.838;2023-04-29T02:49:24;11.20;99.90
37702;DHT22;23548;51.196;6.838;2023-04-29T02:51:50;11.20;99.90
37702;DHT22;23548;51.196;6.838;2023-04-29T02:54:16;11.20;99.90
37702;DHT22;23548;51.196;6.838;2023-04-29T02:56:42;11.20;99.90
37702;DHT22;23548;51.196;6.838;2023-04-29T02:59:08;11.20;99.90
37702;DHT22;23548;51.196;6.838;2023-04-29T03:01:34;11.10;99.90
37702;DHT22;23548;51.196;6.838;2023-04-29T03:04:00;11.00;99.90
37702;DHT22;23548;51.196;6.838;2023-04-29T03:06:26;10.90;99.90
37702;DHT22;23548;51.196;6.838;2023-04-29T03:08:52;10.90;99.90
37702;DHT22;23548;51.196;6.838;2023-04-29T03:11:19;10.80;99.90
37702;DHT22;23548;51.196;6.838;2023-04-29T03:13:44;10.80;99.90
37702;DHT22;23548;51.196;6.838;2023-04-29T03:16:11;10.80;99.90
37702;DHT22;23548;51.196;6.838;2023-04-29T03:18:38;10.80;99.90
37702;DHT22;23548;51.196;6.838;2023-04-29T03:21:06;10.80;99.90
37702;DHT22;23548;51.196;6.838;2023-04-29T03:23:32;10.60;99.90
37702;DHT22;23548;51.196;6.838;2023-04-29T03:25:57;10.50;99.90
37702;DHT22;23548;51.196;6.838;2023-04-29T03:28:23;10.50;99.90
37702;DHT22;23548;51.196;6.838;2023-04-29T03:30:49;10.40;99.90
37702;DHT22;23548;51.196;6.838;2023-04-29T03:33:15;10.40;99.90
37702;DHT22;23548;51.196;6.838;2023-04-29T03:35:40;10.40;99.90
37702;DHT22;23548;51.196;6.838;2023-04-29T03:38:06;10.40;99.90
37702;DHT22;23548;51.196;6.838;2023-04-29T03:40:32;10.40;99.90
37702;DHT22;23548;51.196;6.838;2023-04-29T03:42:58;10.40;99.90
37702;DHT22;23548;51.196;6.838;2023-04-29T03:45:25;10.30;99.90
37702;DHT22;23548;51.196;6.838;2023-04-29T03:47:51;10.30;99.90
37702;DHT22;23548;51.196;6.838;2023-04-29T03:50:18;10.30;99.90
37702;DHT22;23548;51.196;6.838;2023-04-29T03:52:43;10.20;99.90
37702;DHT22;23548;51.196;6.838;2023-04-29T03:55:09;10.10;99.90
37702;DHT22;23548;51.196;6.838;2023-04-29T03:57:37;10.20;99.90
37702;DHT22;23548;51.196;6.838;2023-04-29T04:00:03;10.20;99.90
37702;DHT22;23548;51.196;6.838;2023-04-29T04:02:29;10.20;99.90
37702;DHT22;23548;51.196;6.838;2023-04-29T04:04:55;10.30;99.90
37702;DHT22;23548;51.196;6.838;2023-04-29T04:07:21;10.30;99.90
37702;DHT22;23548;51.196;6.838;2023-04-29T04:09:46;10.20;99.90
37702;DHT22;23548;51.196;6.838;2023-04-29T04:12:12;10.30;99.90
37702;DHT22;23548;51.196;6.838;2023-04-29T04:14:38;10.30;99.90
37702;DHT22;23548;51.196;6.838;2023-04-29T04:17:04;10.20;99.90
37702;DHT22;23548;51.196;6.838;2023-04-29T04:19:30;10.20;99.90
37702;DHT22;23548;51.196;6.838;2023-04-29T04:21:55;10.20;99.90
37702;DHT22;23548;51.196;6.838;2023-04-29T04:24:22;10.20;99.90
37702;DHT22;23548;51.196;6.838;2023-04-29T04:26:47;10.20;99.90
37702;DHT22;23548;51.196;6.838;2023-04-29T04:29:13;10.20;99.90
37702;DHT22;23548;51.196;6.838;2023-04-29T04:31:39;10.20;99.90
37702;DHT22;23548;51.196;6.838;2023-04-29T04:34:05;10.20;99.90
37702;DHT22;23548;51.196;6.838;2023-04-29T04:36:31;10.20;99.90
37702;DHT22;23548;51.196;6.838;2023-04-29T04:38:57;10.20;99.90
37702;DHT22;23548;51.196;6.838;2023-04-29T04:41:23;10.20;99.90
37702;DHT22;23548;51.196;6.838;2023-04-29T04:43:49;10.20;99.90
37702;DHT22;23548;51.196;6.838;2023-04-29T04:46:15;10.20;99.90
37702;DHT22;23548;51.196;6.838;2023-04-29T04:48:41;10.20;99.90
37702;DHT22;23548;51.196;6.838;2023-04-29T04:51:11;10.30;99.90
37702;DHT22;23548;51.196;6.838;2023-04-29T04:53:37;10.20;99.90
37702;DHT22;23548;51.196;6.838;2023-04-29T04:56:03;10.20;99.90
37702;DHT22;23548;51.196;6.838;2023-04-29T04:58:30;10.20;99.90
37702;DHT22;23548;51.196;6.838;2023-04-29T05:00:57;10.20;99.90
37702;DHT22;23548;51.196;6.838;2023-04-29T05:03:23;10.20;99.90
37702;DHT22;23548;51.196;6.838;2023-04-29T05:05:59;10.20;99.90
37702;DHT22;23548;51.196;6.838;2023-04-29T05:08:25;10.20;99.90
37702;DHT22;23548;51.196;6.838;2023-04-29T05:10:51;10.20;99.90
37702;DHT22;23548;51.196;6.838;2023-04-29T05:13:17;10.30;99.90
37702;DHT22;23548;51.196;6.838;2023-04-29T05:15:44;10.20;99.90
37702;DHT22;23548;51.196;6.838;2023-04-29T05:18:10;10.20;99.90
37702;DHT22;23548;51.196;6.838;2023-04-29T05:20:36;10.30;99.90
37702;DHT22;23548;51.196;6.838;2023-04-29T05:23:02;10.30;99.90
37702;DHT22;23548;51.196;6.838;2023-04-29T05:25:28;10.30;99.90
37702;DHT22;23548;51.196;6.838;2023-04-29T05:27:54;10.30;99.90
37702;DHT22;23548;51.196;6.838;2023-04-29T05:30:20;10.30;99.90
37702;DHT22;23548;51.196;6.838;2023-04-29T05:32:46;10.40;99.90
37702;DHT22;23548;51.196;6.838;2023-04-29T05:35:13;10.40;99.90
37702;DHT22;23548;51.196;6.838;2023-04-29T05:37:40;10.40;99.90
37702;DHT22;23548;51.196;6.838;2023-04-29T05:40:06;10.50;99.90
37702;DHT22;23548;51.196;6.838;2023-04-29T05:42:32;10.50;99.90
37702;DHT22;23548;51.196;6.838;2023-04-29T05:44:58;10.60;99.90
37702;DHT22;23548;51.196;6.838;2023-04-29T05:47:24;10.60;99.90
37702;DHT22;23548;51.196;6.838;2023-04-29T05:49:49;10.60;99.90
37702;DHT22;23548;51.196;6.838;2023-04-29T05:52:15;10.60;99.90
37702;DHT22;23548;51.196;6.838;2023-04-29T05:54:41;10.60;99.90
37702;DHT22;23548;51.196;6.838;2023-04-29T05:57:07;10.70;99.90
37702;DHT22;23548;51.196;6.838;2023-04-29T05:59:33;10.70;99.90
37702;DHT22;23548;51.196;6.838;2023-04-29T06:01:59;10.80;99.90
37702;DHT22;23548;51.196;6.838;2023-04-29T06:04:26;10.90;99.90
37702;DHT22;23548;51.196;6.838;2023-04-29T06:06:53;11.00;99.90
37702;DHT22;23548;51.196;6.838;2023-04-29T06:09:19;11.10;99.90
37702;DHT22;23548;51.196;6.838;2023-04-29T06:11:46;11.10;99.90
37702;DHT22;23548;51.196;6.838;2023-04-29T06:14:12;11.10;99.90
37702;DHT22;23548;51.196;6.838;2023-04-29T06:16:38;11.20;99.90
37702;DHT22;23548;51.196;6.838;2023-04-29T06:19:04;11.20;99.90
37702;DHT22;23548;51.196;6.838;2023-04-29T06:21:30;11.20;99.90
37702;DHT22;23548;51.196;6.838;2023-04-29T06:23:57;11.20;99.90
37702;DHT22;23548;51.196;6.838;2023-04-29T06:26:23;11.20;99.90
37702;DHT22;23548;51.196;6.838;2023-04-29T06:28:49;11.10;99.90
37702;DHT22;23548;51.196;6.838;2023-04-29T06:31:15;11.10;99.90
37702;DHT22;23548;51.196;6.838;2023-04-29T06:33:41;11.20;99.90
37702;DHT22;23548;51.196;6.838;2023-04-29T06:36:07;11.30;99.90
37702;DHT22;23548;51.196;6.838;2023-04-29T06:38:32;11.30;99.90
37702;DHT22;23548;51.196;6.838;2023-04-29T06:40:58;11.20;99.90
37702;DHT22;23548;51.196;6.838;2023-04-29T06:43:26;11.30;99.90
37702;DHT22;23548;51.196;6.838;2023-04-29T06:45:52;11.40;99.90
37702;DHT22;23548;51.196;6.838;2023-04-29T06:48:18;11.50;99.90
37702;DHT22;23548;51.196;6.838;2023-04-29T06:50:53;11.30;99.90
37702;DHT22;23548;51.196;6.838;2023-04-29T06:53:19;11.20;99.90
37702;DHT22;23548;51.196;6.838;2023-04-29T06:55:45;11.10;99.90
37702;DHT22;23548;51.196;6.838;2023-04-29T06:58:14;11.10;99.90
37702;DHT22;23548;51.196;6.838;2023-04-29T07:00:44;11.10;99.90
37702;DHT22;23548;51.196;6.838;2023-04-29T07:03:10;11.00;99.90
37702;DHT22;23548;51.196;6.838;2023-04-29T07:05:36;10.90;99.90
37702;DHT22;23548;51.196;6.838;2023-04-29T07:08:07;10.90;99.90
37702;DHT22;23548;51.196;6.838;2023-04-29T07:10:33;11.00;99.90
37702;DHT22;23548;51.196;6.838;2023-04-29T07:12:59;11.00;99.90
37702;DHT22;23548;51.196;6.838;2023-04-29T07:15:28;11.00;99.90
37702;DHT22;23548;51.196;6.838;2023-04-29T07:17:54;11.10;99.90
37702;DHT22;23548;51.196;6.838;2023-04-29T07:20:21;11.10;99.90
37702;DHT22;23548;51.196;6.838;2023-04-29T07:22:47;11.10;99.90
37702;DHT22;23548;51.196;6.838;2023-04-29T07:25:13;11.10;99.90
37702;DHT22;23548;51.196;6.838;2023-04-29T07:27:39;11.20;99.90
37702;DHT22;23548;51.196;6.838;2023-04-29T07:30:05;11.30;99.90
37702;DHT22;23548;51.196;6.838;2023-04-29T07:32:34;11.40;99.90
37702;DHT22;23548;51.196;6.838;2023-04-29T07:35:00;11.50;99.90
37702;DHT22;23548;51.196;6.838;2023-04-29T07:37:26;11.60;99.90
37702;DHT22;23548;51.196;6.838;2023-04-29T07:39:52;11.70;99.90
37702;DHT22;23548;51.196;6.838;2023-04-29T07:42:18;11.60;99.90
37702;DHT22;23548;51.196;6.838;2023-04-29T07:44:43;11.50;99.90
37702;DHT22;23548;51.196;6.838;2023-04-29T07:47:12;11.50;99.90
37702;DHT22;23548;51.196;6.838;2023-04-29T07:49:38;11.50;99.90
37702;DHT22;23548;51.196;6.838;2023-04-29T07:52:04;11.40;99.90
37702;DHT22;23548;51.196;6.838;2023-04-29T07:54:30;11.40;99.90
37702;DHT22;23548;51.196;6.838;2023-04-29T07:56:59;11.40;99.90
37702;DHT22;23548;51.196;6.838;2023-04-29T07:59:25;11.30;99.90
37702;DHT22;23548;51.196;6.838;2023-04-29T08:01:51;11.30;99.90
37702;DHT22;23548;51.196;6.838;2023-04-29T08:04:18;11.40;99.90
37702;DHT22;23548;51.196;6.838;2023-04-29T08:06:44;11.60;99.90
37702;DHT22;23548;51.196;6.838;2023-04-29T08:09:11;11.70;99.90
37702;DHT22;23548;51.196;6.838;2023-04-29T08:11:37;11.80;99.90
37702;DHT22;23548;51.196;6.838;2023-04-29T08:14:04;11.90;99.90
37702;DHT22;23548;51.196;6.838;2023-04-29T08:16:31;11.90;99.90
37702;DHT22;23548;51.196;6.838;2023-04-29T08:18:56;11.80;99.90
37702;DHT22;23548;51.196;6.838;2023-04-29T08:21:22;11.90;99.90
37702;DHT22;23548;51.196;6.838;2023-04-29T08:23:48;11.90;99.90
37702;DHT22;23548;51.196;6.838;2023-04-29T08:26:14;12.10;99.90
37702;DHT22;23548;51.196;6.838;2023-04-29T08:28:40;12.20;99.90
37702;DHT22;23548;51.196;6.838;2023-04-29T08:31:06;12.20;99.90
37702;DHT22;23548;51.196;6.838;2023-04-29T08:33:33;12.30;99.90
37702;DHT22;23548;51.196;6.838;2023-04-29T08:36:00;12.30;99.90
37702;DHT22;23548;51.196;6.838;2023-04-29T08:38:30;12.10;99.90
37702;DHT22;23548;51.196;6.838;2023-04-29T08:40:56;12.10;99.90
37702;DHT22;23548;51.196;6.838;2023-04-29T08:43:22;12.10;99.90
37702;DHT22;23548;51.196;6.838;2023-04-29T08:45:49;11.90;99.90
37702;DHT22;23548;51.196;6.838;2023-04-29T08:48:15;11.80;99.90
37702;DHT22;23548;51.196;6.838;2023-04-29T08:50:42;11.80;99.90
37702;DHT22;23548;51.196;6.838;2023-04-29T08:53:12;11.70;99.90
37702;DHT22;23548;51.196;6.838;2023-04-29T08:55:42;11.60;99.90
37702;DHT22;23548;51.196;6.838;2023-04-29T08:58:09;11.50;99.90
37702;DHT22;23548;51.196;6.838;2023-04-29T09:00:35;11.50;99.90
37702;DHT22;23548;51.196;6.838;2023-04-29T09:05:48;11.30;99.90
37702;DHT22;23548;51.196;6.838;2023-04-29T09:08:17;11.20;99.90
37702;DHT22;23548;51.196;6.838;2023-04-29T09:10:43;11.20;99.90
37702;DHT22;23548;51.196;6.838;2023-04-29T09:13:25;11.20;99.90
37702;DHT22;23548;51.196;6.838;2023-04-29T09:15:51;11.20;99.90
37702;DHT22;23548;51.196;6.838;2023-04-29T09:18:45;11.20;99.90
37702;DHT22;23548;51.196;6.838;2023-04-29T09:21:25;11.10;99.90
37702;DHT22;23548;51.196;6.838;2023-04-29T09:24:01;11.20;99.90
37702;DHT22;23548;51.196;6.838;2023-04-29T09:26:41;11.20;99.90
37702;DHT22;23548;51.196;6.838;2023-04-29T09:29:09;11.30;99.90
37702;DHT22;23548;51.196;6.838;2023-04-29T09:31:39;11.30;99.90
37702;DHT22;23548;51.196;6.838;2023-04-29T09:34:07;11.30;99.90
37702;DHT22;23548;51.196;6.838;2023-04-29T09:36:51;11.20;99.90
37702;DHT22;23548;51.196;6.838;2023-04-29T09:39:22;11.20;99.90
37702;DHT22;23548;51.196;6.838;2023-04-29T09:44:22;11.30;99.90
37702;DHT22;23548;51.196;6.838;2023-04-29T09:49:28;11.40;99.90
37702;DHT22;23548;51.196;6.838;2023-04-29T09:52:01;11.40;99.90
37702;DHT22;23548;51.196;6.838;2023-04-29T09:54:31;11.50;99.90
37702;DHT22;23548;51.196;6.838;2023-04-29T09:56:58;11.60;99.90
37702;DHT22;23548;51.196;6.838;2023-04-29T09:59:25;11.60;99.90
37702;DHT22;23548;51.196;6.838;2023-04-29T10:01:55;11.60;99.90
37702;DHT22;23548;51.196;6.838;2023-04-29T10:04:26;11.60;99.90
37702;DHT22;23548;51.196;6.838;2023-04-29T10:06:54;11.80;99.90
37702;DHT22;23548;51.196;6.838;2023-04-29T10:09:22;11.70;99.90
37702;DHT22;23548;51.196;6.838;2023-04-29T10:11:51;11.70;99.90
37702;DHT22;23548;51.196;6.838;2023-04-29T10:14:23;11.70;99.90
37702;DHT22;23548;51.196;6.838;2023-04-29T10:17:17;11.80;99.90
37702;DHT22;23548;51.196;6.838;2023-04-29T10:20:02;11.90;99.90
37702;DHT22;23548;51.196;6.838;2023-04-29T10:22:44;11.90;99.90
37702;DHT22;23548;51.196;6.838;2023-04-29T10:25:11;12.00;99.90
37702;DHT22;23548;51.196;6.838;2023-04-29T10:27:41;11.90;99.90
37702;DHT22;23548;51.196;6.838;2023-04-29T10:30:12;11.90;99.90
37702;DHT22;23548;51.196;6.838;2023-04-29T10:32:42;12.00;99.90
37702;DHT22;23548;51.196;6.838;2023-04-29T10:35:10;11.90;99.90
37702;DHT22;23548;51.196;6.838;2023-04-29T10:37:46;12.00;99.90
37702;DHT22;23548;51.196;6.838;2023-04-29T10:40:27;12.10;99.90
37702;DHT22;23548;51.196;6.838;2023-04-29T10:42:56;12.10;99.90
37702;DHT22;23548;51.196;6.838;2023-04-29T10:45:24;12.20;99.90
37702;DHT22;23548;51.196;6.838;2023-04-29T10:53:13;12.80;99.90
37702;DHT22;23548;51.196;6.838;2023-04-29T10:55:40;13.10;99.90
37702;DHT22;23548;51.196;6.838;2023-04-29T10:58:42;13.60;99.90
37702;DHT22;23548;51.196;6.838;2023-04-29T11:01:15;13.70;99.90
37702;DHT22;23548;51.196;6.838;2023-04-29T11:04:01;14.30;99.90
37702;DHT22;23548;51.196;6.838;2023-04-29T11:09:11;14.30;99.90
37702;DHT22;23548;51.196;6.838;2023-04-29T11:14:36;14.30;99.90
37702;DHT22;23548;51.196;6.838;2023-04-29T11:17:06;14.30;99.90
37702;DHT22;23548;51.196;6.838;2023-04-29T11:22:26;14.20;99.90
37702;DHT22;23548;51.196;6.838;2023-04-29T11:25:01;14.30;99.90
37702;DHT22;23548;51.196;6.838;2023-04-29T11:29:58;14.50;99.90
37702;DHT22;23548;51.196;6.838;2023-04-29T11:32:29;15.00;99.90
37702;DHT22;23548;51.196;6.838;2023-04-29T11:35:05;15.10;99.90
37702;DHT22;23548;51.196;6.838;2023-04-29T11:37:32;15.30;99.90
37702;DHT22;23548;51.196;6.838;2023-04-29T11:40:01;15.20;99.90
37702;DHT22;23548;51.196;6.838;2023-04-29T11:42:27;15.30;99.90
37702;DHT22;23548;51.196;6.838;2023-04-29T11:44:56;15.40;99.90
37702;DHT22;23548;51.196;6.838;2023-04-29T11:47:28;15.30;99.90
37702;DHT22;23548;51.196;6.838;2023-04-29T11:50:05;15.70;99.90
37702;DHT22;23548;51.196;6.838;2023-04-29T11:52:33;15.70;99.90
37702;DHT22;23548;51.196;6.838;2023-04-29T11:55:04;16.10;99.90
37702;DHT22;23548;51.196;6.838;2023-04-29T11:57:30;15.80;99.90
37702;DHT22;23548;51.196;6.838;2023-04-29T11:59:57;15.80;99.90
37702;DHT22;23548;51.196;6.838;2023-04-29T12:02:33;16.00;99.90
37702;DHT22;23548;51.196;6.838;2023-04-29T12:04:59;15.40;99.90
37702;DHT22;23548;51.196;6.838;2023-04-29T12:07:30;15.30;99.90
37702;DHT22;23548;51.196;6.838;2023-04-29T12:09:55;16.30;99.90
37702;DHT22;23548;51.196;6.838;2023-04-29T12:12:22;16.90;99.90
37702;DHT22;23548;51.196;6.838;2023-04-29T12:14:48;17.60;99.90
37702;DHT22;23548;51.196;6.838;2023-04-29T12:17:15;18.10;99.90
37702;DHT22;23548;51.196;6.838;2023-04-29T12:19:47;18.30;99.90
37702;DHT22;23548;51.196;6.838;2023-04-29T12:22:14;18.70;99.90
37702;DHT22;23548;51.196;6.838;2023-04-29T12:24:40;18.70;99.90
37702;DHT22;23548;51.196;6.838;2023-04-29T12:27:09;18.70;99.90
37702;DHT22;23548;51.196;6.838;2023-04-29T12:29:36;19.00;99.90
37702;DHT22;23548;51.196;6.838;2023-04-29T12:32:02;18.80;99.90
37702;DHT22;23548;51.196;6.838;2023-04-29T12:34:29;18.60;99.90
37702;DHT22;23548;51.196;6.838;2023-04-29T12:36:58;18.10;99.90
37702;DHT22;23548;51.196;6.838;2023-04-29T12:39:25;17.10;99.90
37702;DHT22;23548;51.196;6.838;2023-04-29T12:41:56;17.10;99.90
37702;DHT22;23548;51.196;6.838;2023-04-29T12:44:23;17.20;99.90
37702;DHT22;23548;51.196;6.838;2023-04-29T12:46:50;17.90;99.90
37702;DHT22;23548;51.196;6.838;2023-04-29T12:49:18;18.10;99.90
37702;DHT22;23548;51.196;6.838;2023-04-29T12:51:44;18.00;99.90
37702;DHT22;23548;51.196;6.838;2023-04-29T12:54:10;17.90;99.90
37702;DHT22;23548;51.196;6.838;2023-04-29T12:56:37;17.70;99.90
37702;DHT22;23548;51.196;6.838;2023-04-29T12:59:09;17.10;99.90
37702;DHT22;23548;51.196;6.838;2023-04-29T13:01:37;16.30;99.90
37702;DHT22;23548;51.196;6.838;2023-04-29T13:04:04;16.00;99.90
37702;DHT22;23548;51.196;6.838;2023-04-29T13:06:33;16.00;99.90
37702;DHT22;23548;51.196;6.838;2023-04-29T13:09:05;16.40;99.90
37702;DHT22;23548;51.196;6.838;2023-04-29T13:11:31;16.80;99.90
37702;DHT22;23548;51.196;6.838;2023-04-29T13:13:57;17.30;99.90
37702;DHT22;23548;51.196;6.838;2023-04-29T13:16:23;17.00;99.90
37702;DHT22;23548;51.196;6.838;2023-04-29T13:18:50;17.50;99.90
37702;DHT22;23548;51.196;6.838;2023-04-29T13:21:15;17.60;99.90
37702;DHT22;23548;51.196;6.838;2023-04-29T13:23:41;17.60;99.90
37702;DHT22;23548;51.196;6.838;2023-04-29T13:26:07;17.30;99.90
37702;DHT22;23548;51.196;6.838;2023-04-29T13:28:34;16.30;99.90
37702;DHT22;23548;51.196;6.838;2023-04-29T13:30:59;15.70;99.90
37702;DHT22;23548;51.196;6.838;2023-04-29T13:33:25;15.40;99.90
37702;DHT22;23548;51.196;6.838;2023-04-29T13:35:51;15.10;99.90
37702;DHT22;23548;51.196;6.838;2023-04-29T13:38:17;15.00;99.90
37702;DHT22;23548;51.196;6.838;2023-04-29T13:40:43;15.10;99.90
37702;DHT22;23548;51.196;6.838;2023-04-29T13:43:09;15.50;99.90
37702;DHT22;23548;51.196;6.838;2023-04-29T13:45:35;15.70;99.90
37702;DHT22;23548;51.196;6.838;2023-04-29T13:48:00;15.50;99.90
37702;DHT22;23548;51.196;6.838;2023-04-29T13:50:26;15.40;99.90
37702;DHT22;23548;51.196;6.838;2023-04-29T13:52:52;15.30;99.90
37702;DHT22;23548;51.196;6.838;2023-04-29T13:55:18;15.50;99.90
37702;DHT22;23548;51.196;6.838;2023-04-29T13:57:45;15.70;99.90
37702;DHT22;23548;51.196;6.838;2023-04-29T14:00:11;16.00;99.90
37702;DHT22;23548;51.196;6.838;2023-04-29T14:02:38;16.20;99.90
37702;DHT22;23548;51.196;6.838;2023-04-29T14:05:03;16.30;99.90
37702;DHT22;23548;51.196;6.838;2023-04-29T14:07:29;16.10;99.90
37702;DHT22;23548;51.196;6.838;2023-04-29T14:09:55;16.10;99.90
37702;DHT22;23548;51.196;6.838;2023-04-29T14:12:21;16.20;99.90
37702;DHT22;23548;51.196;6.838;2023-04-29T14:14:46;16.20;99.90
37702;DHT22;23548;51.196;6.838;2023-04-29T14:17:12;16.00;99.90
37702;DHT22;23548;51.196;6.838;2023-04-29T14:19:38;15.80;99.90
37702;DHT22;23548;51.196;6.838;2023-04-29T14:22:03;15.60;99.90
37702;DHT22;23548;51.196;6.838;2023-04-29T14:24:29;15.40;99.90
37702;DHT22;23548;51.196;6.838;2023-04-29T14:26:55;15.40;99.90
37702;DHT22;23548;51.196;6.838;2023-04-29T14:29:22;15.20;99.90
37702;DHT22;23548;51.196;6.838;2023-04-29T14:31:48;15.20;99.90
37702;DHT22;23548;51.196;6.838;2023-04-29T14:34:13;15.20;99.90
37702;DHT22;23548;51.196;6.838;2023-04-29T14:36:39;15.10;99.90
37702;DHT22;23548;51.196;6.838;2023-04-29T14:39:05;15.00;99.90
37702;DHT22;23548;51.196;6.838;2023-04-29T14:41:31;15.20;99.90
37702;DHT22;23548;51.196;6.838;2023-04-29T14:43:57;15.30;99.90
37702;DHT22;23548;51.196;6.838;2023-04-29T14:46:23;15.50;99.90
37702;DHT22;23548;51.196;6.838;2023-04-29T14:48:49;15.60;99.90
37702;DHT22;23548;51.196;6.838;2023-04-29T14:51:15;15.80;99.90
37702;DHT22;23548;51.196;6.838;2023-04-29T14:53:41;16.00;99.90
37702;DHT22;23548;51.196;6.838;2023-04-29T14:56:07;16.00;99.90
37702;DHT22;23548;51.196;6.838;2023-04-29T14:58:33;16.10;99.90
37702;DHT22;23548;51.196;6.838;2023-04-29T15:00:58;16.10;99.90
37702;DHT22;23548;51.196;6.838;2023-04-29T15:03:24;16.10;99.90
37702;DHT22;23548;51.196;6.838;2023-04-29T15:05:50;16.30;99.90
37702;DHT22;23548;51.196;6.838;2023-04-29T15:08:17;16.50;99.90
37702;DHT22;23548;51.196;6.838;2023-04-29T15:10:43;16.60;99.90
37702;DHT22;23548;51.196;6.838;2023-04-29T15:13:11;16.70;99.90
37702;DHT22;23548;51.196;6.838;2023-04-29T15:15:37;16.60;99.90
37702;DHT22;23548;51.196;6.838;2023-04-29T15:18:03;16.70;99.90
37702;DHT22;23548;51.196;6.838;2023-04-29T15:20:30;16.80;99.90
37702;DHT22;23548;51.196;6.838;2023-04-29T15:22:57;16.80;99.90
37702;DHT22;23548;51.196;6.838;2023-04-29T15:25:22;16.40;99.90
37702;DHT22;23548;51.196;6.838;2023-04-29T15:27:48;16.70;99.90
37702;DHT22;23548;51.196;6.838;2023-04-29T15:30:14;17.00;99.90
37702;DHT22;23548;51.196;6.838;2023-04-29T15:32:41;17.00;99.90
37702;DHT22;23548;51.196;6.838;2023-04-29T15:35:07;17.20;99.90
37702;DHT22;23548;51.196;6.838;2023-04-29T15:37:33;17.20;99.90
37702;DHT22;23548;51.196;6.838;2023-04-29T15:39:59;17.30;99.90
37702;DHT22;23548;51.196;6.838;2023-04-29T15:42:25;17.30;99.90
37702;DHT22;23548;51.196;6.838;2023-04-29T15:44:51;17.30;99.90
37702;DHT22;23548;51.196;6.838;2023-04-29T15:47:17;17.00;99.90
37702;DHT22;23548;51.196;6.838;2023-04-29T15:49:43;16.60;99.90
37702;DHT22;23548;51.196;6.838;2023-04-29T15:52:09;16.50;99.90
37702;DHT22;23548;51.196;6.838;2023-04-29T15:54:35;16.50;99.90
37702;DHT22;23548;51.196;6.838;2023-04-29T15:57:01;17.00;99.90
37702;DHT22;23548;51.196;6.838;2023-04-29T15:59:30;16.90;99.90
37702;DHT22;23548;51.196;6.838;2023-04-29T16:01:56;16.90;99.90
37702;DHT22;23548;51.196;6.838;2023-04-29T16:04:22;17.10;99.90
37702;DHT22;23548;51.196;6.838;2023-04-29T16:06:48;17.40;99.90